Time;durP1;ratioP1;P1;durP2;ratioP2;P2;SDS_P1;SDS_P2;PMS_P1;PMS_P2;Temp;Humidity;BMP_temperature;BMP_pressure;BME280_temperature;BME280_humidity;BME280_pressure;Samples;Min_cycle;Max_cycle;Signal;HPM_P1;HPM_P2
2022/08/26 00:00:56;;;;;;;4.57;3.67;;;27.50;51.90;;;;;;5081386;28;20163;-66
2022/08/26 00:03:23;;;;;;;4.72;3.83;;;27.50;52.00;;;;;;5080597;28;20037;-66
2022/08/26 00:05:49;;;;;;;5.22;3.70;;;27.60;52.00;;;;;;5082275;28;20035;-66
2022/08/26 00:08:17;;;;;;;4.75;3.65;;;27.50;52.00;;;;;;5080050;28;20036;-65
2022/08/26 00:10:43;;;;;;;5.53;3.60;;;27.50;52.00;;;;;;5080323;28;20471;-66
2022/08/26 00:13:09;;;;;;;4.70;3.60;;;27.50;52.00;;;;;;5082028;28;20052;-65
2022/08/26 00:15:36;;;;;;;5.30;3.70;;;27.50;52.00;;;;;;5080779;28;20027;-66
2022/08/26 00:18:01;;;;;;;5.00;3.58;;;27.50;52.00;;;;;;5080011;28;20021;-66
2022/08/26 00:20:30;;;;;;;5.00;3.58;;;27.50;52.00;;;;;;5081936;28;20103;-66
2022/08/26 00:22:56;;;;;;;;;;;27.40;52.00;;;;;;5081108;28;20020;-66
2022/08/26 00:25:22;;;;;;;4.22;3.47;;;27.40;52.00;;;;;;5080385;28;19912;-65
2022/08/26 00:27:48;;;;;;;5.03;4.00;;;27.40;52.00;;;;;;5081350;28;20024;-65
2022/08/26 00:30:17;;;;;;;3.72;3.15;;;27.40;52.10;;;;;;5080197;28;20484;-64
2022/08/26 00:32:43;;;;;;;4.50;3.43;;;27.40;52.10;;;;;;5079825;28;20106;-66
2022/08/26 00:35:10;;;;;;;5.57;4.00;;;27.40;52.10;;;;;;5079225;28;20023;-66
2022/08/26 00:37:36;;;;;;;4.00;3.60;;;27.40;52.10;;;;;;5081275;28;20552;-66
2022/08/26 00:40:04;;;;;;;5.18;3.53;;;27.30;52.10;;;;;;5081704;28;20028;-65
2022/08/26 00:42:30;;;;;;;4.43;3.33;;;27.30;52.10;;;;;;5086493;28;20024;-65
2022/08/26 00:44:56;;;;;;;4.57;3.40;;;27.30;52.10;;;;;;5085956;28;20032;-66
2022/08/26 00:47:27;;;;;;;5.53;3.40;;;27.30;52.20;;;;;;5083502;28;20135;-66
2022/08/26 00:49:55;;;;;;;4.10;3.28;;;27.30;52.20;;;;;;5082296;28;20543;-65
2022/08/26 00:52:23;;;;;;;5.07;3.53;;;27.30;52.20;;;;;;5084751;28;20033;-66
2022/08/26 00:54:56;;;;;;;4.75;3.70;;;27.30;52.20;;;;;;5083671;28;20041;-64
2022/08/26 00:57:22;;;;;;;4.57;3.42;;;27.30;52.80;;;;;;5085187;28;20074;-65
2022/08/26 01:00:00;;;;;;;4.47;3.35;;;27.30;52.30;;;;;;5084429;28;20024;-66
2022/08/26 01:02:25;;;;;;;4.85;3.42;;;27.30;52.30;;;;;;5082869;28;20514;-66
2022/08/26 01:04:54;;;;;;;4.00;3.40;;;27.20;52.20;;;;;;5083785;28;20028;-66
2022/08/26 01:07:20;;;;;;;4.47;3.10;;;27.20;52.20;;;;;;5083209;28;20039;-65
2022/08/26 01:09:46;;;;;;;4.20;3.22;;;27.20;52.30;;;;;;5084193;28;20032;-65
2022/08/26 01:12:13;;;;;;;4.13;3.15;;;27.20;52.30;;;;;;5081897;28;20040;-66
2022/08/26 01:14:39;;;;;;;4.07;3.17;;;27.20;52.30;;;;;;5084369;28;20391;-65
2022/08/26 01:17:07;;;;;;;4.57;3.33;;;27.20;52.40;;;;;;5083110;28;20013;-66
2022/08/26 01:19:42;;;;;;;3.80;3.10;;;27.10;52.30;;;;;;5083993;28;20426;-65
2022/08/26 01:22:15;;;;;;;3.63;3.03;;;27.10;52.40;;;;;;5083558;28;20373;-69
2022/08/26 01:24:41;;;;;;;4.15;3.15;;;27.10;52.40;;;;;;5083370;28;20037;-66
2022/08/26 01:27:09;;;;;;;3.58;2.97;;;27.10;52.50;;;;;;5082537;28;20496;-66
2022/08/26 01:29:39;;;;;;;4.40;3.15;;;27.10;53.00;;;;;;5081566;28;20094;-66
2022/08/26 01:32:07;;;;;;;3.30;2.83;;;27.00;52.50;;;;;;5082446;28;20032;-65
2022/08/26 01:34:36;;;;;;;3.80;3.10;;;27.00;52.60;;;;;;5083161;28;20024;-66
2022/08/26 01:37:06;;;;;;;4.75;3.40;;;27.00;52.60;;;;;;5084014;28;20099;-65
2022/08/26 01:39:34;;;;;;;4.97;3.17;;;27.00;52.60;;;;;;5083198;28;20426;-65
2022/08/26 01:42:02;;;;;;;3.40;2.92;;;27.00;52.60;;;;;;5083540;28;20467;-66
2022/08/26 01:44:35;;;;;;;3.17;2.72;;;27.00;52.60;;;;;;5082394;28;20033;-66
2022/08/26 01:47:01;;;;;;;3.33;2.90;;;27.00;52.60;;;;;;5082044;28;20028;-65
2022/08/26 01:49:27;;;;;;;3.53;2.83;;;27.00;52.60;;;;;;5082786;28;20491;-66
2022/08/26 01:51:55;;;;;;;3.10;2.80;;;27.00;53.20;;;;;;5082396;28;20024;-66
2022/08/26 01:54:23;;;;;;;3.30;2.80;;;26.90;52.60;;;;;;5065933;28;20110;-67
2022/08/26 01:56:50;;;;;;;4.55;3.35;;;26.90;52.60;;;;;;5083107;28;20115;-65
2022/08/26 01:59:17;;;;;;;3.58;2.70;;;26.90;52.60;;;;;;5082357;28;20108;-66
2022/08/26 02:01:43;;;;;;;3.80;2.75;;;26.90;52.70;;;;;;5082083;28;20407;-66
2022/08/26 02:04:19;;;;;;;3.85;3.30;;;26.90;52.70;;;;;;5083108;28;20024;-65
2022/08/26 02:06:47;;;;;;;3.97;2.85;;;26.90;52.70;;;;;;5082782;28;20029;-65
2022/08/26 02:09:14;;;;;;;3.33;2.70;;;26.80;52.70;;;;;;5083792;28;20340;-66
2022/08/26 02:11:39;;;;;;;3.35;2.78;;;26.80;52.70;;;;;;5082467;28;20063;-66
2022/08/26 02:14:18;;;;;;;3.83;2.90;;;26.80;52.70;;;;;;5082622;28;20086;-65
2022/08/26 02:16:45;;;;;;;3.72;2.92;;;26.80;52.80;;;;;;5080003;28;20043;-65
2022/08/26 02:19:17;;;;;;;3.17;2.53;;;26.80;52.80;;;;;;5083562;28;20389;-66
2022/08/26 02:21:45;;;;;;;2.97;2.67;;;26.80;52.80;;;;;;5083237;28;20067;-66
2022/08/26 02:24:15;;;;;;;3.63;2.90;;;26.80;52.80;;;;;;5082395;28;20472;-66
2022/08/26 02:26:43;;;;;;;3.42;2.65;;;26.80;52.90;;;;;;5082000;28;20280;-66
2022/08/26 02:29:18;;;;;;;2.92;2.45;;;26.80;52.90;;;;;;5081599;28;20064;-65
2022/08/26 02:31:44;;;;;;;4.20;2.85;;;26.70;52.80;;;;;;5081628;28;20036;-66
2022/08/26 02:34:15;;;;;;;3.67;2.67;;;26.70;52.80;;;;;;5082132;28;20499;-64
2022/08/26 02:36:41;;;;;;;3.75;2.65;;;26.70;52.90;;;;;;5083393;28;20020;-66
2022/08/26 02:39:07;;;;;;;3.60;2.80;;;26.70;52.90;;;;;;5081628;28;20028;-66
2022/08/26 02:41:33;;;;;;;3.72;2.65;;;26.70;52.90;;;;;;5081048;28;20028;-65
2022/08/26 02:43:59;;;;;;;3.60;2.60;;;26.70;52.90;;;;;;5082826;28;20162;-66
2022/08/26 02:46:25;;;;;;;3.75;2.80;;;26.60;52.90;;;;;;5081970;28;20485;-66
2022/08/26 02:48:50;;;;;;;3.47;2.45;;;26.60;53.00;;;;;;5081679;28;20032;-66
2022/08/26 02:51:16;;;;;;;3.97;2.78;;;26.60;53.00;;;;;;5064526;28;20027;-66
2022/08/26 02:53:42;;;;;;;3.20;2.40;;;26.60;53.00;;;;;;5081362;28;20067;-65
2022/08/26 02:56:08;;;;;;;3.00;2.25;;;26.60;53.00;;;;;;5081979;28;20035;-66
2022/08/26 02:58:34;;;;;;;3.25;2.65;;;26.60;53.10;;;;;;5082512;28;20028;-65
2022/08/26 03:01:00;;;;;;;3.40;2.60;;;26.60;53.10;;;;;;5080450;28;20046;-66
2022/08/26 03:03:25;;;;;;;4.18;2.88;;;26.60;53.10;;;;;;5082303;28;20364;-65
2022/08/26 03:05:53;;;;;;;3.72;2.70;;;26.50;53.10;;;;;;5080214;28;20032;-65
2022/08/26 03:08:19;;;;;;;3.58;2.60;;;26.50;53.10;;;;;;5083397;28;20064;-65
2022/08/26 03:10:47;;;;;;;3.83;2.70;;;26.50;53.10;;;;;;5080249;28;20495;-65
2022/08/26 03:13:14;;;;;;;4.63;3.00;;;26.50;53.10;;;;;;5079711;28;20461;-66
2022/08/26 03:15:40;;;;;;;3.72;2.80;;;26.50;53.10;;;;;;5082337;28;20024;-65
2022/08/26 03:18:06;;;;;;;3.03;2.35;;;26.50;53.10;;;;;;5080962;28;20028;-65
2022/08/26 03:20:32;;;;;;;3.28;2.47;;;26.50;53.70;;;;;;5079420;28;20039;-66
2022/08/26 03:22:58;;;;;;;3.00;2.60;;;26.50;53.10;;;;;;5079463;28;20035;-66
2022/08/26 03:25:24;;;;;;;2.85;2.38;;;26.50;53.10;;;;;;5082191;28;20106;-65
2022/08/26 03:27:50;;;;;;;3.42;2.75;;;26.40;53.10;;;;;;5080776;28;20047;-66
2022/08/26 03:33:02;;;;;;;3.58;2.50;;;26.50;53.20;;;;;;5081004;28;20035;-66
2022/08/26 03:35:28;;;;;;;2.95;2.40;;;26.40;53.10;;;;;;5082229;28;20025;-66
2022/08/26 03:37:54;;;;;;;3.20;2.65;;;26.50;53.60;;;;;;5080328;28;20500;-67
2022/08/26 03:40:20;;;;;;;3.20;2.60;;;26.40;53.20;;;;;;5081937;28;20035;-65
2022/08/26 03:42:46;;;;;;;3.35;2.50;;;26.40;53.10;;;;;;5080981;28;20021;-65
2022/08/26 03:45:14;;;;;;;3.17;2.35;;;26.40;53.10;;;;;;5081218;28;20029;-66
2022/08/26 03:47:39;;;;;;;3.67;2.60;;;26.40;53.10;;;;;;5080953;28;20406;-64
2022/08/26 03:50:08;;;;;;;3.33;2.50;;;26.40;53.20;;;;;;5080937;28;20036;-67
2022/08/26 03:52:34;;;;;;;3.03;2.45;;;26.40;53.20;;;;;;5080370;28;20028;-67
2022/08/26 03:55:00;;;;;;;3.28;2.30;;;26.40;53.20;;;;;;5081916;28;20512;-65
2022/08/26 03:57:25;;;;;;;3.40;2.67;;;26.40;53.20;;;;;;5080218;28;20024;-65
2022/08/26 03:59:51;;;;;;;2.95;2.40;;;26.40;53.20;;;;;;5084159;28;20077;-64
2022/08/26 04:02:17;;;;;;;2.70;2.30;;;26.40;53.20;;;;;;5081607;28;20063;-65
2022/08/26 04:04:42;;;;;;;3.28;2.25;;;26.40;53.20;;;;;;5079760;28;20052;-66
2022/08/26 04:07:08;;;;;;;3.13;2.50;;;26.40;53.20;;;;;;5082116;28;20486;-65
2022/08/26 04:09:33;;;;;;;2.78;2.30;;;26.40;53.20;;;;;;5079656;28;20035;-67
2022/08/26 04:11:59;;;;;;;3.17;2.50;;;26.40;53.10;;;;;;5079294;28;20029;-66
2022/08/26 04:14:26;;;;;;;2.80;2.20;;;26.40;53.20;;;;;;5077101;28;20416;-67
2022/08/26 04:16:55;;;;;;;2.90;2.40;;;26.40;53.10;;;;;;5078055;28;20117;-65
2022/08/26 04:19:22;;;;;;;3.40;2.60;;;26.30;53.10;;;;;;5081556;28;20056;-65
2022/08/26 04:21:52;;;;;;;3.65;2.45;;;26.30;53.10;;;;;;5079879;28;20117;-65
2022/08/26 04:24:21;;;;;;;3.35;2.75;;;26.30;53.10;;;;;;5079758;28;20024;-66
2022/08/26 04:26:47;;;;;;;3.33;2.60;;;26.30;53.10;;;;;;5081066;28;20028;-65
2022/08/26 04:29:19;;;;;;;2.63;2.40;;;26.30;53.30;;;;;;5079625;28;20029;-65
2022/08/26 04:31:46;;;;;;;2.97;2.20;;;26.30;53.10;;;;;;5079679;28;20044;-66
2022/08/26 04:34:13;;;;;;;3.20;2.50;;;26.30;53.70;;;;;;5079258;28;20031;-66
2022/08/26 04:36:39;;;;;;;3.35;2.38;;;26.30;53.20;;;;;;5081383;28;20462;-66
2022/08/26 04:39:06;;;;;;;2.85;2.25;;;26.30;53.50;;;;;;5080792;28;20434;-66
2022/08/26 04:41:32;;;;;;;2.72;2.40;;;26.30;53.20;;;;;;5081045;28;20437;-65
2022/08/26 04:43:58;;;;;;;2.65;2.20;;;26.30;53.20;;;;;;5080516;28;20488;-66
2022/08/26 04:46:24;;;;;;;2.80;2.30;;;26.30;53.20;;;;;;5080978;28;20111;-66
2022/08/26 04:48:52;;;;;;;3.38;2.30;;;26.30;53.20;;;;;;5079723;28;20077;-66
2022/08/26 04:51:19;;;;;;;3.22;2.60;;;26.30;53.70;;;;;;5080762;28;20035;-64
2022/08/26 04:53:45;;;;;;;2.53;2.05;;;26.20;53.10;;;;;;5080680;28;20031;-66
2022/08/26 04:56:12;;;;;;;3.47;2.33;;;26.20;53.10;;;;;;5079391;28;20459;-65
2022/08/26 04:58:38;;;;;;;2.92;2.30;;;26.20;53.10;;;;;;5080489;28;20441;-65
2022/08/26 05:01:04;;;;;;;2.78;2.13;;;26.30;53.20;;;;;;5078988;28;20107;-65
2022/08/26 05:03:30;;;;;;;3.38;2.40;;;26.20;53.60;;;;;;5080012;28;20035;-66
2022/08/26 05:05:56;;;;;;;3.70;2.70;;;26.20;53.10;;;;;;5080589;28;20497;-65
2022/08/26 05:08:23;;;;;;;2.85;2.10;;;26.20;53.10;;;;;;5079987;28;20240;-65
2022/08/26 05:10:53;;;;;;;2.60;2.10;;;26.20;53.10;;;;;;5080641;28;20028;-65
2022/08/26 05:13:20;;;;;;;3.63;2.42;;;26.20;53.10;;;;;;5080820;28;20048;-66
2022/08/26 05:15:47;;;;;;;3.13;2.30;;;26.20;53.10;;;;;;5079593;28;20024;-66
2022/08/26 05:18:13;;;;;;;3.17;2.40;;;26.20;53.20;;;;;;5078908;28;20115;-65
2022/08/26 05:20:41;;;;;;;3.20;2.47;;;26.20;53.20;;;;;;5080672;28;20025;-65
2022/08/26 05:23:07;;;;;;;2.67;2.38;;;26.20;53.70;;;;;;5079146;28;20482;-66
2022/08/26 05:25:38;;;;;;;2.75;2.10;;;26.20;53.20;;;;;;5081187;28;20107;-65
2022/08/26 05:28:04;;;;;;;3.50;2.10;;;26.20;53.70;;;;;;5082335;28;20052;-66
2022/08/26 05:30:30;;;;;;;2.63;2.22;;;26.20;53.10;;;;;;5082429;28;20052;-66
2022/08/26 05:32:56;;;;;;;3.17;2.40;;;26.20;53.20;;;;;;5082954;28;20028;-65
2022/08/26 05:35:22;;;;;;;3.70;2.40;;;26.20;53.20;;;;;;5082355;28;20025;-66
2022/08/26 05:37:48;;;;;;;2.97;2.25;;;26.20;53.20;;;;;;5083970;28;20031;-65
2022/08/26 05:40:14;;;;;;;2.72;2.33;;;26.20;53.20;;;;;;5084402;28;20031;-65
2022/08/26 05:42:40;;;;;;;2.75;2.20;;;26.20;53.20;;;;;;5082319;28;20028;-65
2022/08/26 05:45:07;;;;;;;2.78;2.10;;;26.20;53.20;;;;;;5083499;28;20025;-65
2022/08/26 05:47:33;;;;;;;2.97;2.30;;;26.20;53.20;;;;;;5083307;28;20040;-65
2022/08/26 05:49:59;;;;;;;3.08;2.30;;;26.20;53.20;;;;;;5084134;28;20070;-66
2022/08/26 05:52:25;;;;;;;3.22;2.50;;;26.20;53.20;;;;;;5083010;28;20487;-65
2022/08/26 05:54:51;;;;;;;2.67;2.20;;;26.20;53.20;;;;;;5084021;28;20040;-65
2022/08/26 05:57:16;;;;;;;3.17;2.33;;;26.20;53.20;;;;;;5083092;28;20031;-65
2022/08/26 05:59:42;;;;;;;2.78;2.10;;;26.20;53.30;;;;;;5082956;28;20075;-65
2022/08/26 06:02:08;;;;;;;2.70;2.10;;;26.20;53.20;;;;;;5082651;28;21078;-64
2022/08/26 06:04:34;;;;;;;3.20;2.10;;;26.20;53.10;;;;;;5082326;28;20090;-65
2022/08/26 06:07:00;;;;;;;2.70;2.13;;;26.20;52.90;;;;;;5083618;28;20124;-64
2022/08/26 06:09:26;;;;;;;2.58;2.20;;;26.30;52.90;;;;;;5083279;28;20071;-65
2022/08/26 06:11:51;;;;;;;2.67;2.22;;;26.30;52.80;;;;;;5082476;28;20020;-64
2022/08/26 06:14:17;;;;;;;3.80;2.70;;;26.40;52.80;;;;;;5082032;28;20048;-65
2022/08/26 06:16:43;;;;;;;3.78;2.40;;;26.30;53.20;;;;;;5082912;28;20526;-65
2022/08/26 06:19:11;;;;;;;3.15;2.80;;;26.40;52.70;;;;;;5083619;28;20059;-65
2022/08/26 06:21:39;;;;;;;4.30;3.45;;;26.40;52.60;;;;;;5082256;28;20447;-64
2022/08/26 06:26:55;;;;;;;6.32;4.40;;;26.50;52.80;;;;;;5080399;28;20047;-64
2022/08/26 06:29:24;;;;;;;7.40;4.63;;;26.50;52.90;;;;;;5082250;28;20032;-65
2022/08/26 06:31:51;;;;;;;6.70;5.03;;;26.50;53.10;;;;;;5083124;28;20093;-65
2022/08/26 06:34:17;;;;;;;7.82;4.85;;;26.50;53.30;;;;;;5081975;28;20491;-65
2022/08/26 06:36:43;;;;;;;7.45;4.90;;;26.50;53.50;;;;;;5083240;28;20028;-65
2022/08/26 06:39:11;;;;;;;7.38;5.30;;;26.50;53.80;;;;;;5081316;28;20037;-65
2022/08/26 06:41:37;;;;;;;8.70;5.28;;;26.50;54.00;;;;;;5083541;28;20020;-64
2022/08/26 06:44:05;;;;;;;8.30;5.40;;;26.40;54.10;;;;;;5081409;28;20028;-65
2022/08/26 06:46:32;;;;;;;8.50;5.43;;;26.50;54.40;;;;;;5080072;28;20090;-65
2022/08/26 06:48:57;;;;;;;10.30;5.97;;;26.40;54.60;;;;;;5082842;28;20037;-64
2022/08/26 06:51:32;;;;;;;10.07;5.75;;;26.40;55.30;;;;;;5081980;28;20452;-65
2022/08/26 06:53:59;;;;;;;8.45;5.80;;;26.50;55.00;;;;;;5082450;28;20430;-64
2022/08/26 06:56:37;;;;;;;8.30;5.93;;;26.50;55.40;;;;;;5081219;28;20031;-65
2022/08/26 06:59:03;;;;;;;6.65;5.55;;;26.40;55.60;;;;;;5081665;28;20054;-65
2022/08/26 07:01:32;;;;;;;8.50;5.70;;;26.40;56.10;;;;;;5080749;28;20028;-64
2022/08/26 07:04:02;;;;;;;9.05;6.82;;;26.50;56.40;;;;;;5080976;28;20021;-64
2022/08/26 07:06:28;;;;;;;8.27;6.50;;;26.50;56.00;;;;;;5078408;28;20500;-65
2022/08/26 07:09:01;;;;;;;10.25;6.22;;;26.50;57.10;;;;;;5082913;28;20138;-64
2022/08/26 07:11:27;;;;;;;8.65;7.25;;;26.40;56.70;;;;;;5080375;28;20067;-64
2022/08/26 07:13:53;;;;;;;8.75;6.00;;;26.50;56.20;;;;;;5083192;28;20092;-65
2022/08/26 07:16:19;;;;;;;9.43;6.10;;;26.50;56.40;;;;;;5081492;28;20058;-64
2022/08/26 07:18:45;;;;;;;7.95;5.93;;;26.50;55.70;;;;;;5080953;28;20466;-64
2022/08/26 07:21:13;;;;;;;9.07;5.57;;;26.60;55.60;;;;;;5082711;28;20468;-64
2022/08/26 07:23:39;;;;;;;8.05;5.50;;;26.60;55.50;;;;;;5081754;28;20043;-64
2022/08/26 07:26:14;;;;;;;6.28;5.00;;;26.60;55.40;;;;;;5080864;28;20376;-64
2022/08/26 07:28:41;;;;;;;7.60;5.40;;;26.60;55.40;;;;;;5081827;28;20107;-64
2022/08/26 07:31:09;;;;;;;8.07;5.32;;;26.70;55.30;;;;;;5080556;28;20025;-64
2022/08/26 07:33:36;;;;;;;8.90;5.35;;;26.70;55.10;;;;;;5082024;28;20032;-64
2022/08/26 07:36:02;;;;;;;6.90;5.40;;;26.70;55.00;;;;;;5080402;28;20471;-65
2022/08/26 07:38:28;;;;;;;7.35;4.80;;;26.80;54.90;;;;;;5082073;28;20028;-64
2022/08/26 07:40:54;;;;;;;5.55;4.68;;;26.80;55.30;;;;;;5080001;28;20545;-65
2022/08/26 07:43:20;;;;;;;6.78;4.80;;;26.80;54.70;;;;;;5082627;28;20050;-64
2022/08/26 07:45:46;;;;;;;5.32;4.18;;;26.80;54.60;;;;;;5079546;28;20024;-65
2022/08/26 07:48:12;;;;;;;7.00;4.93;;;26.80;54.60;;;;;;5082072;28;20027;-64
2022/08/26 07:50:38;;;;;;;6.43;4.80;;;26.80;54.60;;;;;;5079669;28;20472;-64
2022/08/26 07:53:04;;;;;;;6.68;5.22;;;26.90;54.60;;;;;;5080344;28;20042;-64
2022/08/26 07:55:30;;;;;;;6.30;4.93;;;26.90;54.40;;;;;;5082302;28;20115;-64
2022/08/26 07:57:56;;;;;;;5.78;4.72;;;26.90;54.40;;;;;;5079500;28;20024;-65
2022/08/26 08:00:23;;;;;;;6.93;4.88;;;26.90;54.40;;;;;;5081005;28;20028;-65
2022/08/26 08:02:50;;;;;;;5.47;4.30;;;26.90;55.00;;;;;;5080692;28;20099;-64
2022/08/26 08:05:17;;;;;;;5.13;3.78;;;26.90;54.50;;;;;;5081347;28;20471;-65
2022/08/26 08:07:43;;;;;;;5.82;4.40;;;26.90;54.60;;;;;;5080715;28;20048;-65
2022/08/26 08:10:12;;;;;;;5.97;4.57;;;27.00;54.50;;;;;;5079696;28;20032;-64
2022/08/26 08:12:39;;;;;;;5.38;4.50;;;27.00;54.40;;;;;;5080033;28;20052;-64
2022/08/26 08:15:06;;;;;;;5.57;4.38;;;27.00;54.40;;;;;;5080431;28;20357;-66
2022/08/26 08:17:33;;;;;;;4.72;4.10;;;27.00;54.50;;;;;;5080829;28;20080;-66
2022/08/26 08:19:59;;;;;;;5.55;4.50;;;27.00;54.60;;;;;;5080406;28;20054;-66
2022/08/26 08:22:24;;;;;;;7.00;5.57;;;27.00;54.50;;;;;;5080858;28;20067;-66
2022/08/26 08:24:50;;;;;;;6.35;4.70;;;27.10;54.60;;;;;;5079182;28;20655;-65
2022/08/26 08:27:16;;;;;;;7.00;5.30;;;27.10;54.60;;;;;;5079490;28;20484;-66
2022/08/26 08:29:42;;;;;;;6.18;5.30;;;27.10;54.50;;;;;;5079945;28;20033;-65
2022/08/26 08:32:07;;;;;;;5.90;4.63;;;27.10;54.40;;;;;;5079401;28;20036;-64
2022/08/26 08:34:33;;;;;;;5.53;4.13;;;27.20;54.60;;;;;;5079006;28;20074;-66
2022/08/26 08:36:59;;;;;;;4.95;4.30;;;27.20;54.90;;;;;;5079622;28;20349;-65
2022/08/26 08:39:25;;;;;;;5.82;4.20;;;27.20;54.70;;;;;;5078263;28;20432;-66
2022/08/26 08:42:08;;;;;;;5.53;4.28;;;27.20;54.50;;;;;;5080213;28;20023;-66
2022/08/26 08:44:39;;;;;;;6.38;4.45;;;27.20;55.30;;;;;;5080079;28;20027;-64
2022/08/26 08:47:18;;;;;;;6.00;4.43;;;27.30;55.10;;;;;;5077890;28;20111;-66
2022/08/26 08:49:44;;;;;;;7.80;5.15;;;27.30;55.10;;;;;;5079193;28;20024;-66
2022/08/26 08:52:28;;;;;;;6.97;5.43;;;27.30;54.60;;;;;;5077701;28;20076;-66
2022/08/26 08:54:54;;;;;;;7.18;4.60;;;27.30;54.50;;;;;;5078990;28;20560;-65
2022/08/26 08:57:54;;;;;;;6.97;4.60;;;27.30;54.60;;;;;;5080572;28;20329;-66
2022/08/26 09:00:23;;;;;;;4.88;4.00;;;27.30;55.20;;;;;;5065269;28;20090;-66
2022/08/26 09:03:36;;;;;;;5.32;4.20;;;27.30;54.40;;;;;;5084617;28;20077;-66
2022/08/26 09:06:15;;;;;;;6.13;5.05;;;27.30;54.50;;;;;;5051825;28;20484;-66
2022/08/26 09:08:43;;;;;;;5.72;5.05;;;27.40;54.40;;;;;;5084447;28;20028;-66
2022/08/26 09:11:09;;;;;;;6.10;5.50;;;27.40;54.30;;;;;;5083045;28;20089;-66
2022/08/26 09:13:36;;;;;;;6.60;4.57;;;27.40;54.20;;;;;;5083473;28;20455;-66
2022/08/26 09:16:08;;;;;;;5.13;4.38;;;27.40;54.20;;;;;;5083439;28;20023;-66
2022/08/26 09:19:03;;;;;;;5.97;4.90;;;27.40;54.30;;;;;;5080979;28;20048;-65
2022/08/26 09:21:30;;;;;;;7.68;4.78;;;27.40;54.10;;;;;;5084045;28;20032;-66
2022/08/26 09:23:56;;;;;;;7.45;5.00;;;27.40;54.10;;;;;;5081679;28;20039;-66
2022/08/26 09:26:26;;;;;;;5.50;4.90;;;27.40;54.00;;;;;;5083710;28;20427;-66
2022/08/26 09:28:58;;;;;;;5.72;5.05;;;27.50;54.00;;;;;;5083017;28;20035;-66
2022/08/26 09:31:42;;;;;;;6.10;5.07;;;27.40;53.90;;;;;;5080775;28;20037;-66
2022/08/26 09:34:26;;;;;;;6.22;4.72;;;27.40;54.00;;;;;;5082529;28;20038;-66
2022/08/26 09:36:57;;;;;;;6.15;4.65;;;27.40;53.80;;;;;;5082202;28;20030;-67
2022/08/26 09:39:35;;;;;;;6.55;4.60;;;27.50;53.90;;;;;;5083202;28;20158;-66
2022/08/26 09:42:05;;;;;;;7.95;4.72;;;27.50;53.90;;;;;;5081100;28;20118;-66
2022/08/26 09:44:32;;;;;;;5.97;5.10;;;27.50;53.90;;;;;;5083084;28;20059;-66
2022/08/26 09:47:01;;;;;;;9.60;4.80;;;27.50;53.80;;;;;;5082736;28;20036;-66
2022/08/26 09:49:31;;;;;;;5.63;4.68;;;27.50;53.90;;;;;;5084128;28;20604;-67
2022/08/26 09:52:22;;;;;;;5.50;4.78;;;27.50;54.00;;;;;;5084131;28;20103;-66
2022/08/26 09:55:13;;;;;;;5.85;4.78;;;27.50;54.00;;;;;;5080785;28;20039;-67
2022/08/26 09:57:53;;;;;;;5.88;4.85;;;27.60;54.00;;;;;;5076563;28;20506;-67
2022/08/26 10:00:27;;;;;;;6.47;4.28;;;27.50;53.80;;;;;;5081289;28;20036;-66
2022/08/26 10:02:54;;;;;;;6.20;4.65;;;27.60;53.70;;;;;;5082507;28;20028;-67
2022/08/26 10:05:35;;;;;;;4.88;4.38;;;27.60;53.70;;;;;;5082055;28;20024;-66
2022/08/26 10:08:20;;;;;;;5.20;4.47;;;27.60;53.60;;;;;;5082546;28;20089;-67
2022/08/26 10:10:46;;;;;;;5.80;4.30;;;27.60;53.90;;;;;;5083146;28;20475;-66
2022/08/26 10:13:16;;;;;;;5.10;4.57;;;27.60;53.70;;;;;;5082166;28;20461;-66
2022/08/26 10:16:19;;;;;;;5.13;4.15;;;27.60;53.60;;;;;;5082734;28;20025;-66
2022/08/26 10:19:11;;;;;;;4.30;3.80;;;27.60;54.00;;;;;;5072261;28;20148;-66
2022/08/26 10:21:52;;;;;;;5.18;4.10;;;27.60;53.50;;;;;;5081417;28;20039;-66
2022/08/26 10:24:24;;;;;;;4.53;3.95;;;27.70;53.40;;;;;;5081310;28;20361;-67
2022/08/26 10:27:22;;;;;;;4.70;3.78;;;27.70;53.40;;;;;;5082929;28;20032;-67
2022/08/26 10:29:50;;;;;;;5.10;3.92;;;27.60;53.30;;;;;;5084469;28;20488;-66
2022/08/26 10:32:31;;;;;;;5.07;3.85;;;27.60;53.20;;;;;;5080780;28;20032;-66
2022/08/26 10:34:57;;;;;;;6.03;4.35;;;27.60;53.70;;;;;;5080235;28;20505;-67
2022/08/26 10:37:29;;;;;;;4.63;3.90;;;27.60;53.30;;;;;;5083037;28;20127;-65
2022/08/26 10:40:22;;;;;;;4.38;3.65;;;27.70;53.40;;;;;;5081310;28;20539;-64
2022/08/26 10:42:56;;;;;;;4.80;4.22;;;27.70;53.40;;;;;;5079475;28;20021;-65
2022/08/26 10:45:25;;;;;;;4.07;3.47;;;27.70;53.40;;;;;;5083197;28;20518;-64
2022/08/26 10:47:57;;;;;;;5.72;3.85;;;27.70;53.30;;;;;;5080232;28;20066;-64
2022/08/26 10:50:30;;;;;;;4.43;3.35;;;27.70;53.40;;;;;;5081687;28;20043;-65
2022/08/26 10:53:18;;;;;;;4.63;3.38;;;27.70;53.40;;;;;;5081892;28;20500;-65
2022/08/26 10:55:58;;;;;;;4.70;3.80;;;27.70;53.40;;;;;;5081831;28;20020;-64
2022/08/26 10:58:46;;;;;;;4.85;3.70;;;27.70;53.40;;;;;;5081257;28;20611;-65
2022/08/26 11:01:42;;;;;;;5.47;4.03;;;27.70;53.40;;;;;;5080033;28;20040;-65
2022/08/26 11:04:39;;;;;;;5.35;4.22;;;27.70;53.40;;;;;;5078679;28;20016;-65
2022/08/26 11:07:31;;;;;;;4.70;3.50;;;27.80;53.50;;;;;;5079791;28;20032;-65
2022/08/26 11:10:01;;;;;;;5.82;4.03;;;27.80;53.40;;;;;;5070250;28;20027;-65
2022/08/26 11:12:36;;;;;;;6.05;4.13;;;27.80;53.40;;;;;;5081661;28;20396;-65
2022/08/26 11:15:06;;;;;;;5.10;4.00;;;27.80;53.40;;;;;;5080468;28;20052;-67
2022/08/26 11:17:43;;;;;;;4.97;4.00;;;27.80;53.30;;;;;;5080637;28;20016;-65
2022/08/26 11:20:32;;;;;;;5.65;3.92;;;27.90;53.40;;;;;;5078884;28;20020;-67
2022/08/26 11:23:13;;;;;;;5.20;3.70;;;27.90;53.30;;;;;;5070207;28;20111;-67
2022/08/26 11:26:14;;;;;;;4.80;3.83;;;27.90;53.30;;;;;;5082183;28;20024;-66
2022/08/26 11:28:43;;;;;;;4.97;3.80;;;27.90;53.30;;;;;;5048612;28;20028;-66
2022/08/26 11:31:18;;;;;;;6.00;3.83;;;27.90;53.20;;;;;;5080874;28;20032;-65
2022/08/26 11:33:55;;;;;;;4.90;3.78;;;28.00;53.30;;;;;;5081167;28;20122;-65
2022/08/26 11:36:38;;;;;;;4.57;3.75;;;28.00;53.30;;;;;;5082070;28;20031;-65
2022/08/26 11:39:29;;;;;;;5.25;3.95;;;28.00;53.20;;;;;;5080815;28;20118;-65
2022/08/26 11:42:14;;;;;;;5.88;4.07;;;28.00;53.30;;;;;;5082985;28;20484;-65
2022/08/26 11:44:42;;;;;;;5.75;3.83;;;28.00;53.20;;;;;;5077689;28;20082;-66
2022/08/26 11:47:10;;;;;;;5.60;4.10;;;28.00;53.10;;;;;;5080661;28;20108;-65
2022/08/26 11:49:37;;;;;;;5.47;3.80;;;28.00;53.00;;;;;;5080854;28;20034;-64
2022/08/26 11:52:20;;;;;;;4.78;3.83;;;28.10;53.10;;;;;;5080936;28;20116;-67
2022/08/26 11:55:06;;;;;;;5.28;3.50;;;28.10;53.10;;;;;;5081667;28;20028;-66
2022/08/26 11:57:34;;;;;;;5.03;3.50;;;28.10;53.10;;;;;;5082113;28;20028;-65
2022/08/26 12:00:01;;;;;;;4.85;3.67;;;28.00;53.00;;;;;;5078166;28;20047;-68
2022/08/26 12:02:27;;;;;;;5.47;3.50;;;28.10;53.00;;;;;;5080507;28;20036;-66
2022/08/26 12:04:54;;;;;;;5.20;3.88;;;28.10;52.90;;;;;;5081105;28;20029;-65
2022/08/26 12:07:26;;;;;;;5.15;4.00;;;28.00;52.80;;;;;;5062518;28;20379;-63
2022/08/26 12:10:03;;;;;;;6.07;3.75;;;28.00;52.90;;;;;;5080147;28;20020;-66
2022/08/26 12:12:36;;;;;;;5.55;3.40;;;28.00;52.90;;;;;;5080186;28;20037;-66
2022/08/26 12:15:15;;;;;;;4.65;3.78;;;28.00;52.90;;;;;;5079945;28;20042;-66
2022/08/26 12:17:43;;;;;;;5.93;3.90;;;28.10;52.90;;;;;;5080688;28;20310;-66
2022/08/26 12:20:45;;;;;;;5.45;3.60;;;28.00;52.80;;;;;;5080192;28;20036;-66
2022/08/26 12:23:25;;;;;;;4.70;3.50;;;28.00;52.80;;;;;;5068909;28;20043;-66
2022/08/26 12:26:01;;;;;;;4.65;3.55;;;28.00;52.80;;;;;;5080838;28;20477;-66
2022/08/26 12:28:28;;;;;;;4.72;3.88;;;28.00;52.80;;;;;;5079413;28;20032;-67
2022/08/26 12:30:59;;;;;;;5.88;3.83;;;28.00;52.80;;;;;;5080061;28;20032;-66
2022/08/26 12:33:26;;;;;;;4.82;3.80;;;28.00;52.90;;;;;;5080519;28;20028;-66
2022/08/26 12:35:52;;;;;;;4.50;3.65;;;28.00;52.90;;;;;;5084155;28;20468;-66
2022/08/26 12:38:19;;;;;;;4.07;3.40;;;27.90;52.90;;;;;;5082962;28;20499;-66
2022/08/26 12:40:45;;;;;;;4.57;3.53;;;27.90;52.90;;;;;;5085175;28;20110;-66
2022/08/26 12:43:15;;;;;;;4.13;3.20;;;27.90;52.90;;;;;;5085409;28;20024;-66
2022/08/26 12:45:56;;;;;;;4.88;3.15;;;27.90;53.00;;;;;;5083595;28;20016;-66
2022/08/26 12:48:28;;;;;;;4.85;3.45;;;27.90;53.00;;;;;;5083689;28;20054;-65
2022/08/26 12:50:54;;;;;;;4.22;3.25;;;27.90;53.00;;;;;;5085279;28;20027;-66
2022/08/26 12:53:25;;;;;;;3.80;3.00;;;27.80;53.00;;;;;;5082700;28;20020;-65
2022/08/26 12:56:03;;;;;;;3.80;3.10;;;27.90;53.10;;;;;;5085628;28;20483;-66
2022/08/26 12:58:33;;;;;;;3.83;3.28;;;27.80;53.00;;;;;;5084722;28;20036;-66
2022/08/26 13:01:07;;;;;;;3.80;3.13;;;27.80;53.00;;;;;;5083448;28;20020;-67
2022/08/26 13:03:33;;;;;;;4.07;2.90;;;27.80;53.10;;;;;;5084616;28;20498;-67
2022/08/26 13:06:21;;;;;;;4.00;3.15;;;27.80;53.10;;;;;;5084246;28;20025;-67
2022/08/26 13:08:52;;;;;;;4.20;3.20;;;27.80;53.10;;;;;;5083330;28;20028;-67